This is the latest recevied weather packets stored in our database for station/object SR5NLK-1. If no packets are shown the sender has not sent any weather packets the latest 1 day(s).
| Time | Temp. | Humidity | Pressure | Rain* | Wind** | Luminosity | Snow |
|---|---|---|---|---|---|---|---|
| 1778087550 | 23.33° C | 46% | 1019.7 hPa | 0 mm | - | - | - |
| 1778087250 | 23.33° C | 46% | 1079.2 hPa | 0 mm | - | - | - |
| 1778086650 | 23.33° C | 45% | 1013.5 hPa | 0 mm | - | - | - |
| 1778086350 | 23.89° C | 45% | 929.9 hPa | 0 mm | - | - | - |
| 1778086050 | 23.89° C | 44% | 1049.1 hPa | 0 mm | - | - | - |
| 1778085450 | 24.44° C | 43% | 1005.5 hPa | 0 mm | - | - | - |
| 1778085150 | 25° C | 42% | 1019.8 hPa | 0 mm | - | - | - |
| 1778084250 | 25.56° C | 42% | 923.6 hPa | 0 mm | - | - | - |
| 1778084129 | 25.56° C | 42% | 929.8 hPa | 0 mm | - | - | - |
| 1778083950 | 25° C | 42% | 952.2 hPa | 0 mm | - | - | - |
| 1778083350 | 25° C | 41% | 998.5 hPa | 0 mm | - | - | - |
| 1778083050 | 25.56° C | 41% | 1001 hPa | 0 mm | - | - | - |
| 1778082450 | 25.56° C | 41% | 924.8 hPa | 0 mm | - | - | - |
| 1778082157 | 25° C | - | - | 0 mm | - | - | - |
| 1778082149 | 25° C | 42% | 1046 hPa | 0 mm | - | - | - |
| 1778081850 | 25° C | 41% | 1039.6 hPa | 0 mm | - | - | - |
| 1778081250 | 25.56° C | 40% | 1049.1 hPa | 0 mm | - | - | - |
| 1778080950 | 26.11° C | 39% | 1015.2 hPa | 0 mm | - | - | - |
| 1778080350 | 26.11° C | 38% | 1052.2 hPa | 0 mm | - | - | - |
| 1778080050 | 26.67° C | 37% | 1007.3 hPa | 0 mm | - | - | - |
| 1778079750 | 27.22° C | 37% | 1030.3 hPa | 0 mm | - | - | - |
| 1778078550 | 28.89° C | 35% | 959.7 hPa | 0 mm | - | - | - |
| 1778077951 | 28.33° C | 35% | 1014.3 hPa | 0 mm | - | - | - |
| 1778077350 | 27.22° C | 36% | 1094.1 hPa | 0 mm | - | - | - |
| 1778076451 | 28.89° C | 34% | 1023.3 hPa | 0 mm | - | - | - |
* Rain latest hour (hover to see other rain measurements)
** Current wind speed in m/s (hover to see current wind gust speed)